sensor_id;sensor_type;location;lat;lon;timestamp;P1;durP1;ratioP1;P2;durP2;ratioP2
37280;SDS011;23169;41.804;12.596;2023-02-01T00:01:08;22.35;;;8.48;;
37280;SDS011;23169;41.804;12.596;2023-02-01T00:08:31;22.25;;;7.88;;
37280;SDS011;23169;41.804;12.596;2023-02-01T00:11:09;16.25;;;7.45;;
37280;SDS011;23169;41.804;12.596;2023-02-01T00:13:38;23.83;;;8.57;;
37280;SDS011;23169;41.804;12.596;2023-02-01T00:16:11;25.98;;;9.85;;
37280;SDS011;23169;41.804;12.596;2023-02-01T00:18:46;20.63;;;9.40;;
37280;SDS011;23169;41.804;12.596;2023-02-01T00:21:16;22.90;;;9.65;;
37280;SDS011;23169;41.804;12.596;2023-02-01T00:23:46;23.65;;;10.32;;
37280;SDS011;23169;41.804;12.596;2023-02-01T00:26:14;21.85;;;9.80;;
37280;SDS011;23169;41.804;12.596;2023-02-01T00:28:45;25.83;;;10.48;;
37280;SDS011;23169;41.804;12.596;2023-02-01T00:31:12;26.70;;;10.73;;
37280;SDS011;23169;41.804;12.596;2023-02-01T00:33:40;21.83;;;10.20;;
37280;SDS011;23169;41.804;12.596;2023-02-01T00:36:07;26.05;;;10.60;;
37280;SDS011;23169;41.804;12.596;2023-02-01T00:38:36;23.65;;;9.85;;
37280;SDS011;23169;41.804;12.596;2023-02-01T00:43:33;22.73;;;9.77;;
37280;SDS011;23169;41.804;12.596;2023-02-01T00:46:01;23.63;;;9.73;;
37280;SDS011;23169;41.804;12.596;2023-02-01T00:48:30;19.70;;;8.68;;
37280;SDS011;23169;41.804;12.596;2023-02-01T00:51:01;20.30;;;8.88;;
37280;SDS011;23169;41.804;12.596;2023-02-01T00:53:30;21.50;;;8.73;;
37280;SDS011;23169;41.804;12.596;2023-02-01T00:55:58;19.60;;;8.38;;
37280;SDS011;23169;41.804;12.596;2023-02-01T00:58:27;16.25;;;8.23;;
37280;SDS011;23169;41.804;12.596;2023-02-01T01:03:40;18.25;;;8.05;;
37280;SDS011;23169;41.804;12.596;2023-02-01T01:06:15;21.15;;;7.97;;
37280;SDS011;23169;41.804;12.596;2023-02-01T01:08:45;17.23;;;7.90;;
37280;SDS011;23169;41.804;12.596;2023-02-01T01:11:18;19.38;;;7.50;;
37280;SDS011;23169;41.804;12.596;2023-02-01T01:13:48;19.60;;;8.38;;
37280;SDS011;23169;41.804;12.596;2023-02-01T01:16:17;17.52;;;7.38;;
37280;SDS011;23169;41.804;12.596;2023-02-01T01:18:48;18.92;;;7.60;;
37280;SDS011;23169;41.804;12.596;2023-02-01T01:21:17;20.73;;;7.68;;
37280;SDS011;23169;41.804;12.596;2023-02-01T01:23:47;20.42;;;7.53;;
37280;SDS011;23169;41.804;12.596;2023-02-01T01:26:20;18.58;;;6.80;;
37280;SDS011;23169;41.804;12.596;2023-02-01T01:28:50;20.67;;;7.05;;
37280;SDS011;23169;41.804;12.596;2023-02-01T01:31:19;17.52;;;6.90;;
37280;SDS011;23169;41.804;12.596;2023-02-01T01:33:49;18.20;;;6.72;;
37280;SDS011;23169;41.804;12.596;2023-02-01T01:36:19;16.15;;;6.45;;
37280;SDS011;23169;41.804;12.596;2023-02-01T01:38:49;10.82;;;5.97;;
37280;SDS011;23169;41.804;12.596;2023-02-01T01:41:22;13.93;;;5.85;;
37280;SDS011;23169;41.804;12.596;2023-02-01T01:46:46;16.25;;;6.15;;
37280;SDS011;23169;41.804;12.596;2023-02-01T01:49:15;14.45;;;5.75;;
37280;SDS011;23169;41.804;12.596;2023-02-01T01:54:49;16.17;;;5.65;;
37280;SDS011;23169;41.804;12.596;2023-02-01T01:57:19;17.13;;;5.72;;
37280;SDS011;23169;41.804;12.596;2023-02-01T01:59:57;13.10;;;5.47;;
37280;SDS011;23169;41.804;12.596;2023-02-01T02:02:30;13.35;;;5.68;;
37280;SDS011;23169;41.804;12.596;2023-02-01T02:04:59;11.65;;;5.20;;
37280;SDS011;23169;41.804;12.596;2023-02-01T02:07:29;11.40;;;5.30;;
37280;SDS011;23169;41.804;12.596;2023-02-01T02:10:02;12.52;;;5.40;;
37280;SDS011;23169;41.804;12.596;2023-02-01T02:12:33;11.93;;;5.97;;
37280;SDS011;23169;41.804;12.596;2023-02-01T02:15:02;17.65;;;5.28;;
37280;SDS011;23169;41.804;12.596;2023-02-01T02:42:21;21.27;;;9.73;;
37280;SDS011;23169;41.804;12.596;2023-02-01T02:45:31;22.60;;;10.02;;
37280;SDS011;23169;41.804;12.596;2023-02-01T02:48:37;21.15;;;9.32;;
37280;SDS011;23169;41.804;12.596;2023-02-01T02:51:13;19.23;;;8.50;;
37280;SDS011;23169;41.804;12.596;2023-02-01T02:54:15;19.13;;;8.27;;
37280;SDS011;23169;41.804;12.596;2023-02-01T02:57:07;20.55;;;7.60;;
37280;SDS011;23169;41.804;12.596;2023-02-01T02:59:57;18.15;;;7.32;;
37280;SDS011;23169;41.804;12.596;2023-02-01T03:02:46;16.25;;;6.75;;
37280;SDS011;23169;41.804;12.596;2023-02-01T03:05:35;19.38;;;6.90;;
37280;SDS011;23169;41.804;12.596;2023-02-01T03:08:14;18.15;;;7.03;;
37280;SDS011;23169;41.804;12.596;2023-02-01T03:21:24;21.58;;;7.97;;
37280;SDS011;23169;41.804;12.596;2023-02-01T03:24:03;18.48;;;7.47;;
37280;SDS011;23169;41.804;12.596;2023-02-01T03:26:38;17.35;;;8.00;;
37280;SDS011;23169;41.804;12.596;2023-02-01T03:29:24;21.38;;;8.35;;
37280;SDS011;23169;41.804;12.596;2023-02-01T03:31:58;19.90;;;8.27;;
37280;SDS011;23169;41.804;12.596;2023-02-01T03:34:28;20.60;;;8.77;;
37280;SDS011;23169;41.804;12.596;2023-02-01T03:37:03;21.58;;;9.00;;
37280;SDS011;23169;41.804;12.596;2023-02-01T03:39:37;19.35;;;8.85;;
37280;SDS011;23169;41.804;12.596;2023-02-01T03:42:09;23.40;;;8.95;;
37280;SDS011;23169;41.804;12.596;2023-02-01T03:45:07;22.75;;;9.50;;
37280;SDS011;23169;41.804;12.596;2023-02-01T03:47:39;24.58;;;11.40;;
37280;SDS011;23169;41.804;12.596;2023-02-01T03:50:10;26.85;;;11.65;;
37280;SDS011;23169;41.804;12.596;2023-02-01T03:52:47;24.75;;;10.95;;
37280;SDS011;23169;41.804;12.596;2023-02-01T03:55:21;24.42;;;10.48;;
37280;SDS011;23169;41.804;12.596;2023-02-01T03:58:12;20.27;;;9.63;;
37280;SDS011;23169;41.804;12.596;2023-02-01T04:00:54;23.13;;;8.90;;
37280;SDS011;23169;41.804;12.596;2023-02-01T04:03:26;18.45;;;8.57;;
37280;SDS011;23169;41.804;12.596;2023-02-01T04:05:55;25.10;;;10.77;;
37280;SDS011;23169;41.804;12.596;2023-02-01T04:08:23;24.30;;;10.77;;
37280;SDS011;23169;41.804;12.596;2023-02-01T04:10:51;23.67;;;10.43;;
37280;SDS011;23169;41.804;12.596;2023-02-01T04:13:20;22.35;;;10.20;;
37280;SDS011;23169;41.804;12.596;2023-02-01T04:15:48;18.95;;;8.75;;
37280;SDS011;23169;41.804;12.596;2023-02-01T04:18:17;21.40;;;9.07;;
37280;SDS011;23169;41.804;12.596;2023-02-01T04:20:45;18.00;;;7.80;;
37280;SDS011;23169;41.804;12.596;2023-02-01T04:23:14;20.33;;;8.60;;
37280;SDS011;23169;41.804;12.596;2023-02-01T04:25:43;22.73;;;11.05;;
37280;SDS011;23169;41.804;12.596;2023-02-01T04:28:12;26.27;;;12.65;;
37280;SDS011;23169;41.804;12.596;2023-02-01T04:30:40;25.38;;;11.70;;
37280;SDS011;23169;41.804;12.596;2023-02-01T04:33:09;28.33;;;12.90;;
37280;SDS011;23169;41.804;12.596;2023-02-01T04:35:37;27.48;;;12.80;;
37280;SDS011;23169;41.804;12.596;2023-02-01T04:38:05;27.92;;;11.95;;
37280;SDS011;23169;41.804;12.596;2023-02-01T04:40:35;25.58;;;11.45;;
37280;SDS011;23169;41.804;12.596;2023-02-01T04:43:05;27.08;;;13.65;;
37280;SDS011;23169;41.804;12.596;2023-02-01T04:45:33;26.48;;;13.23;;
37280;SDS011;23169;41.804;12.596;2023-02-01T04:48:02;26.45;;;13.50;;
37280;SDS011;23169;41.804;12.596;2023-02-01T04:50:30;29.30;;;15.23;;
37280;SDS011;23169;41.804;12.596;2023-02-01T04:52:59;32.90;;;17.05;;
37280;SDS011;23169;41.804;12.596;2023-02-01T04:55:28;31.95;;;16.50;;
37280;SDS011;23169;41.804;12.596;2023-02-01T04:57:58;31.55;;;16.90;;
37280;SDS011;23169;41.804;12.596;2023-02-01T05:00:26;33.17;;;17.88;;
37280;SDS011;23169;41.804;12.596;2023-02-01T05:02:55;33.42;;;17.27;;
37280;SDS011;23169;41.804;12.596;2023-02-01T05:05:23;29.83;;;16.23;;
37280;SDS011;23169;41.804;12.596;2023-02-01T05:07:51;29.15;;;16.10;;
37280;SDS011;23169;41.804;12.596;2023-02-01T05:10:20;31.10;;;16.33;;
37280;SDS011;23169;41.804;12.596;2023-02-01T05:12:48;29.65;;;15.57;;
37280;SDS011;23169;41.804;12.596;2023-02-01T05:15:35;28.65;;;14.77;;
37280;SDS011;23169;41.804;12.596;2023-02-01T05:18:04;27.38;;;15.30;;
37280;SDS011;23169;41.804;12.596;2023-02-01T05:20:33;29.13;;;15.55;;
37280;SDS011;23169;41.804;12.596;2023-02-01T05:23:01;28.58;;;15.55;;
37280;SDS011;23169;41.804;12.596;2023-02-01T05:25:30;33.15;;;16.02;;
37280;SDS011;23169;41.804;12.596;2023-02-01T05:27:58;32.13;;;14.40;;
37280;SDS011;23169;41.804;12.596;2023-02-01T05:30:27;27.73;;;14.35;;
37280;SDS011;23169;41.804;12.596;2023-02-01T05:32:55;30.52;;;14.48;;
37280;SDS011;23169;41.804;12.596;2023-02-01T05:35:24;30.17;;;14.10;;
37280;SDS011;23169;41.804;12.596;2023-02-01T05:37:54;27.63;;;13.75;;
37280;SDS011;23169;41.804;12.596;2023-02-01T05:40:24;26.30;;;12.73;;
37280;SDS011;23169;41.804;12.596;2023-02-01T05:42:52;27.13;;;13.02;;
37280;SDS011;23169;41.804;12.596;2023-02-01T05:45:20;26.63;;;13.27;;
37280;SDS011;23169;41.804;12.596;2023-02-01T05:47:49;28.35;;;13.52;;
37280;SDS011;23169;41.804;12.596;2023-02-01T05:50:17;25.10;;;12.88;;
37280;SDS011;23169;41.804;12.596;2023-02-01T05:52:45;27.17;;;13.82;;
37280;SDS011;23169;41.804;12.596;2023-02-01T05:55:14;29.70;;;12.85;;
37280;SDS011;23169;41.804;12.596;2023-02-01T05:57:42;28.15;;;12.75;;
37280;SDS011;23169;41.804;12.596;2023-02-01T06:00:11;28.33;;;13.18;;
37280;SDS011;23169;41.804;12.596;2023-02-01T06:02:40;27.50;;;13.50;;
37280;SDS011;23169;41.804;12.596;2023-02-01T06:05:08;28.52;;;13.40;;
37280;SDS011;23169;41.804;12.596;2023-02-01T06:07:36;28.30;;;14.02;;
37280;SDS011;23169;41.804;12.596;2023-02-01T06:10:05;25.85;;;12.48;;
37280;SDS011;23169;41.804;12.596;2023-02-01T06:12:34;30.38;;;14.68;;
37280;SDS011;23169;41.804;12.596;2023-02-01T06:15:02;28.83;;;15.27;;
37280;SDS011;23169;41.804;12.596;2023-02-01T06:17:31;29.38;;;14.52;;
37280;SDS011;23169;41.804;12.596;2023-02-01T06:20:00;31.27;;;14.90;;
37280;SDS011;23169;41.804;12.596;2023-02-01T06:22:28;30.67;;;13.77;;
37280;SDS011;23169;41.804;12.596;2023-02-01T06:24:56;28.83;;;14.88;;
37280;SDS011;23169;41.804;12.596;2023-02-01T06:27:26;32.25;;;14.90;;
37280;SDS011;23169;41.804;12.596;2023-02-01T06:29:54;29.08;;;15.02;;
37280;SDS011;23169;41.804;12.596;2023-02-01T06:32:23;31.05;;;15.85;;
37280;SDS011;23169;41.804;12.596;2023-02-01T06:34:53;29.40;;;15.70;;
37280;SDS011;23169;41.804;12.596;2023-02-01T06:37:23;28.23;;;14.35;;
37280;SDS011;23169;41.804;12.596;2023-02-01T06:39:53;30.67;;;14.75;;
37280;SDS011;23169;41.804;12.596;2023-02-01T06:42:21;28.38;;;14.23;;
37280;SDS011;23169;41.804;12.596;2023-02-01T06:44:49;28.17;;;13.77;;
37280;SDS011;23169;41.804;12.596;2023-02-01T06:47:17;30.30;;;14.05;;
37280;SDS011;23169;41.804;12.596;2023-02-01T06:49:46;34.42;;;14.25;;
37280;SDS011;23169;41.804;12.596;2023-02-01T06:52:14;28.35;;;15.00;;
37280;SDS011;23169;41.804;12.596;2023-02-01T06:54:42;30.52;;;14.57;;
37280;SDS011;23169;41.804;12.596;2023-02-01T06:57:10;29.10;;;14.30;;
37280;SDS011;23169;41.804;12.596;2023-02-01T06:59:41;33.20;;;15.77;;
37280;SDS011;23169;41.804;12.596;2023-02-01T07:02:11;28.30;;;14.60;;
37280;SDS011;23169;41.804;12.596;2023-02-01T07:04:40;34.58;;;15.30;;
37280;SDS011;23169;41.804;12.596;2023-02-01T07:07:08;34.13;;;14.77;;
37280;SDS011;23169;41.804;12.596;2023-02-01T07:09:36;32.05;;;14.60;;
37280;SDS011;23169;41.804;12.596;2023-02-01T07:12:04;28.98;;;14.63;;
37280;SDS011;23169;41.804;12.596;2023-02-01T07:14:33;28.08;;;14.10;;
37280;SDS011;23169;41.804;12.596;2023-02-01T07:17:01;27.05;;;13.65;;
37280;SDS011;23169;41.804;12.596;2023-02-01T07:19:30;29.77;;;13.50;;
37280;SDS011;23169;41.804;12.596;2023-02-01T07:21:59;30.98;;;14.05;;
37280;SDS011;23169;41.804;12.596;2023-02-01T07:24:28;30.55;;;12.77;;
37280;SDS011;23169;41.804;12.596;2023-02-01T07:26:58;29.45;;;13.13;;
37280;SDS011;23169;41.804;12.596;2023-02-01T07:29:26;32.88;;;11.50;;
37280;SDS011;23169;41.804;12.596;2023-02-01T07:31:55;25.02;;;11.70;;
37280;SDS011;23169;41.804;12.596;2023-02-01T07:34:23;27.85;;;11.23;;
37280;SDS011;23169;41.804;12.596;2023-02-01T07:36:51;26.65;;;11.73;;
37280;SDS011;23169;41.804;12.596;2023-02-01T07:39:20;27.80;;;11.90;;
37280;SDS011;23169;41.804;12.596;2023-02-01T07:41:48;28.73;;;13.63;;
37280;SDS011;23169;41.804;12.596;2023-02-01T07:44:17;35.03;;;18.38;;
37280;SDS011;23169;41.804;12.596;2023-02-01T07:46:50;37.33;;;19.77;;
37280;SDS011;23169;41.804;12.596;2023-02-01T07:49:18;33.75;;;18.02;;
37280;SDS011;23169;41.804;12.596;2023-02-01T07:51:47;30.00;;;14.75;;
37280;SDS011;23169;41.804;12.596;2023-02-01T07:54:16;28.88;;;14.48;;
37280;SDS011;23169;41.804;12.596;2023-02-01T07:56:44;27.80;;;13.50;;
37280;SDS011;23169;41.804;12.596;2023-02-01T07:59:12;27.25;;;13.23;;
37280;SDS011;23169;41.804;12.596;2023-02-01T08:01:41;26.88;;;12.13;;
37280;SDS011;23169;41.804;12.596;2023-02-01T08:04:10;26.75;;;12.05;;
37280;SDS011;23169;41.804;12.596;2023-02-01T08:06:40;25.20;;;12.13;;
37280;SDS011;23169;41.804;12.596;2023-02-01T08:09:09;28.92;;;13.68;;
37280;SDS011;23169;41.804;12.596;2023-02-01T08:11:38;29.85;;;13.60;;
37280;SDS011;23169;41.804;12.596;2023-02-01T08:14:06;26.30;;;11.68;;
37280;SDS011;23169;41.804;12.596;2023-02-01T08:16:35;28.88;;;13.90;;
37280;SDS011;23169;41.804;12.596;2023-02-01T08:19:05;29.85;;;14.38;;
37280;SDS011;23169;41.804;12.596;2023-02-01T08:21:34;29.30;;;13.18;;
37280;SDS011;23169;41.804;12.596;2023-02-01T08:24:07;28.35;;;14.18;;
37280;SDS011;23169;41.804;12.596;2023-02-01T08:26:36;26.80;;;13.45;;
37280;SDS011;23169;41.804;12.596;2023-02-01T08:29:05;30.25;;;15.65;;
37280;SDS011;23169;41.804;12.596;2023-02-01T08:31:35;33.95;;;16.08;;
37280;SDS011;23169;41.804;12.596;2023-02-01T08:34:03;31.48;;;15.85;;
37280;SDS011;23169;41.804;12.596;2023-02-01T08:36:32;34.55;;;20.10;;
37280;SDS011;23169;41.804;12.596;2023-02-01T08:39:01;35.97;;;19.65;;
37280;SDS011;23169;41.804;12.596;2023-02-01T08:41:33;33.70;;;18.10;;
37280;SDS011;23169;41.804;12.596;2023-02-01T08:44:01;34.38;;;18.50;;
37280;SDS011;23169;41.804;12.596;2023-02-01T08:46:30;32.75;;;18.38;;
37280;SDS011;23169;41.804;12.596;2023-02-01T08:48:58;29.23;;;16.70;;
37280;SDS011;23169;41.804;12.596;2023-02-01T08:51:27;32.95;;;16.33;;
37280;SDS011;23169;41.804;12.596;2023-02-01T08:53:55;31.45;;;15.65;;
37280;SDS011;23169;41.804;12.596;2023-02-01T08:56:24;30.92;;;16.23;;
37280;SDS011;23169;41.804;12.596;2023-02-01T08:58:52;34.25;;;17.15;;
37280;SDS011;23169;41.804;12.596;2023-02-01T09:01:21;28.88;;;15.98;;
37280;SDS011;23169;41.804;12.596;2023-02-01T09:03:49;27.70;;;15.18;;
37280;SDS011;23169;41.804;12.596;2023-02-01T09:06:17;29.85;;;14.90;;
37280;SDS011;23169;41.804;12.596;2023-02-01T09:08:47;29.65;;;15.70;;
37280;SDS011;23169;41.804;12.596;2023-02-01T09:11:16;29.25;;;14.75;;
37280;SDS011;23169;41.804;12.596;2023-02-01T09:13:47;34.08;;;15.38;;
37280;SDS011;23169;41.804;12.596;2023-02-01T09:16:16;32.60;;;15.43;;
37280;SDS011;23169;41.804;12.596;2023-02-01T09:18:48;28.48;;;14.00;;
37280;SDS011;23169;41.804;12.596;2023-02-01T09:21:16;28.95;;;15.38;;
37280;SDS011;23169;41.804;12.596;2023-02-01T09:23:45;30.35;;;15.07;;
37280;SDS011;23169;41.804;12.596;2023-02-01T09:26:16;30.50;;;15.80;;
37280;SDS011;23169;41.804;12.596;2023-02-01T09:28:45;31.25;;;14.82;;
37280;SDS011;23169;41.804;12.596;2023-02-01T09:31:15;34.88;;;16.23;;
37280;SDS011;23169;41.804;12.596;2023-02-01T09:33:43;32.42;;;15.25;;
37280;SDS011;23169;41.804;12.596;2023-02-01T09:36:13;37.55;;;15.60;;
37280;SDS011;23169;41.804;12.596;2023-02-01T09:38:42;29.45;;;16.40;;
37280;SDS011;23169;41.804;12.596;2023-02-01T09:41:17;30.48;;;16.17;;
37280;SDS011;23169;41.804;12.596;2023-02-01T09:46:55;31.10;;;16.88;;
37280;SDS011;23169;41.804;12.596;2023-02-01T09:49:26;33.20;;;17.45;;
37280;SDS011;23169;41.804;12.596;2023-02-01T09:51:59;31.90;;;17.73;;
37280;SDS011;23169;41.804;12.596;2023-02-01T09:54:52;32.45;;;18.35;;
37280;SDS011;23169;41.804;12.596;2023-02-01T09:57:33;31.20;;;17.63;;
37280;SDS011;23169;41.804;12.596;2023-02-01T10:00:12;34.47;;;22.02;;
37280;SDS011;23169;41.804;12.596;2023-02-01T10:02:53;39.42;;;20.08;;
37280;SDS011;23169;41.804;12.596;2023-02-01T10:11:20;30.52;;;17.30;;
37280;SDS011;23169;41.804;12.596;2023-02-01T10:13:55;30.15;;;17.27;;
37280;SDS011;23169;41.804;12.596;2023-02-01T10:24:16;30.98;;;15.48;;
37280;SDS011;23169;41.804;12.596;2023-02-01T10:29:48;27.52;;;16.23;;
37280;SDS011;23169;41.804;12.596;2023-02-01T10:32:24;29.05;;;16.20;;
37280;SDS011;23169;41.804;12.596;2023-02-01T10:34:59;24.90;;;14.40;;
37280;SDS011;23169;41.804;12.596;2023-02-01T10:37:31;28.25;;;15.60;;
37280;SDS011;23169;41.804;12.596;2023-02-01T10:40:17;25.95;;;15.18;;
37280;SDS011;23169;41.804;12.596;2023-02-01T10:42:48;28.63;;;15.82;;
37280;SDS011;23169;41.804;12.596;2023-02-01T10:45:21;30.05;;;16.23;;
37280;SDS011;23169;41.804;12.596;2023-02-01T10:47:53;31.35;;;14.68;;
37280;SDS011;23169;41.804;12.596;2023-02-01T10:53:31;28.23;;;13.95;;
37280;SDS011;23169;41.804;12.596;2023-02-01T10:56:11;25.33;;;13.57;;
37280;SDS011;23169;41.804;12.596;2023-02-01T10:58:44;24.70;;;12.93;;
37280;SDS011;23169;41.804;12.596;2023-02-01T11:01:16;27.38;;;13.32;;
37280;SDS011;23169;41.804;12.596;2023-02-01T11:03:54;27.13;;;13.60;;
37280;SDS011;23169;41.804;12.596;2023-02-01T11:08:58;24.33;;;11.05;;
37280;SDS011;23169;41.804;12.596;2023-02-01T11:14:18;22.30;;;9.65;;
37280;SDS011;23169;41.804;12.596;2023-02-01T11:17:12;21.02;;;9.38;;
37280;SDS011;23169;41.804;12.596;2023-02-01T11:19:48;20.85;;;7.95;;
37280;SDS011;23169;41.804;12.596;2023-02-01T11:22:25;18.67;;;7.82;;
37280;SDS011;23169;41.804;12.596;2023-02-01T11:24:56;17.33;;;8.68;;
37280;SDS011;23169;41.804;12.596;2023-02-01T11:27:26;18.00;;;7.00;;
37280;SDS011;23169;41.804;12.596;2023-02-01T11:29:57;10.68;;;4.95;;
37280;SDS011;23169;41.804;12.596;2023-02-01T11:32:29;16.02;;;5.47;;
37280;SDS011;23169;41.804;12.596;2023-02-01T11:35:02;15.48;;;4.90;;
37280;SDS011;23169;41.804;12.596;2023-02-01T11:37:37;11.63;;;4.97;;
37280;SDS011;23169;41.804;12.596;2023-02-01T11:45:34;13.90;;;5.15;;
37280;SDS011;23169;41.804;12.596;2023-02-01T11:48:09;12.60;;;5.78;;
37280;SDS011;23169;41.804;12.596;2023-02-01T11:51:53;17.80;;;6.50;;
37280;SDS011;23169;41.804;12.596;2023-02-01T11:54:02;13.90;;;5.95;;
37280;SDS011;23169;41.804;12.596;2023-02-01T11:57:13;19.02;;;6.28;;
37280;SDS011;23169;41.804;12.596;2023-02-01T12:03:17;15.57;;;6.80;;
37280;SDS011;23169;41.804;12.596;2023-02-01T12:20:44;19.65;;;8.13;;
37280;SDS011;23169;41.804;12.596;2023-02-01T12:25:34;17.98;;;7.55;;
37280;SDS011;23169;41.804;12.596;2023-02-01T12:34:12;20.27;;;8.10;;
37280;SDS011;23169;41.804;12.596;2023-02-01T12:37:09;19.67;;;8.10;;
37280;SDS011;23169;41.804;12.596;2023-02-01T12:45:04;15.50;;;7.30;;
37280;SDS011;23169;41.804;12.596;2023-02-01T12:50:59;15.82;;;6.90;;
37280;SDS011;23169;41.804;12.596;2023-02-01T12:53:37;16.40;;;6.88;;
37280;SDS011;23169;41.804;12.596;2023-02-01T12:56:25;18.65;;;7.93;;
37280;SDS011;23169;41.804;12.596;2023-02-01T12:59:01;15.15;;;6.72;;
37280;SDS011;23169;41.804;12.596;2023-02-01T13:01:43;17.83;;;6.50;;
37280;SDS011;23169;41.804;12.596;2023-02-01T13:07:01;20.48;;;8.07;;
37280;SDS011;23169;41.804;12.596;2023-02-01T13:12:13;17.85;;;7.53;;
37280;SDS011;23169;41.804;12.596;2023-02-01T13:15:23;19.13;;;8.38;;
37280;SDS011;23169;41.804;12.596;2023-02-01T13:17:48;18.30;;;7.57;;
37280;SDS011;23169;41.804;12.596;2023-02-01T13:20:21;19.02;;;7.95;;
37280;SDS011;23169;41.804;12.596;2023-02-01T13:26:11;20.33;;;8.00;;
37280;SDS011;23169;41.804;12.596;2023-02-01T13:28:42;17.88;;;7.38;;
37280;SDS011;23169;41.804;12.596;2023-02-01T13:43:01;16.27;;;6.45;;
37280;SDS011;23169;41.804;12.596;2023-02-01T13:45:17;18.52;;;6.90;;
37280;SDS011;23169;41.804;12.596;2023-02-01T13:47:51;17.23;;;7.20;;
37280;SDS011;23169;41.804;12.596;2023-02-01T13:50:29;16.88;;;6.38;;
37280;SDS011;23169;41.804;12.596;2023-02-01T13:55:40;11.65;;;5.30;;
37280;SDS011;23169;41.804;12.596;2023-02-01T13:58:17;10.50;;;5.20;;
37280;SDS011;23169;41.804;12.596;2023-02-01T14:00:47;14.07;;;5.22;;
37280;SDS011;23169;41.804;12.596;2023-02-01T14:03:22;10.88;;;5.20;;
37280;SDS011;23169;41.804;12.596;2023-02-01T14:06:15;15.55;;;6.15;;
37280;SDS011;23169;41.804;12.596;2023-02-01T14:19:25;11.65;;;5.53;;
37280;SDS011;23169;41.804;12.596;2023-02-01T14:21:56;15.23;;;5.93;;
37280;SDS011;23169;41.804;12.596;2023-02-01T14:24:33;10.48;;;4.90;;
37280;SDS011;23169;41.804;12.596;2023-02-01T14:29:41;10.82;;;5.53;;
37280;SDS011;23169;41.804;12.596;2023-02-01T14:32:19;12.95;;;4.93;;
37280;SDS011;23169;41.804;12.596;2023-02-01T14:34:50;15.73;;;5.63;;
37280;SDS011;23169;41.804;12.596;2023-02-01T14:39:58;13.80;;;5.15;;
37280;SDS011;23169;41.804;12.596;2023-02-01T14:47:51;11.57;;;4.47;;
37280;SDS011;23169;41.804;12.596;2023-02-01T14:55:45;9.45;;;4.18;;
37280;SDS011;23169;41.804;12.596;2023-02-01T14:58:32;9.48;;;3.83;;
37280;SDS011;23169;41.804;12.596;2023-02-01T15:04:14;7.68;;;3.42;;
37280;SDS011;23169;41.804;12.596;2023-02-01T15:06:46;12.45;;;4.00;;
37280;SDS011;23169;41.804;12.596;2023-02-01T15:14:40;10.55;;;4.22;;
37280;SDS011;23169;41.804;12.596;2023-02-01T15:17:22;11.43;;;3.92;;
37280;SDS011;23169;41.804;12.596;2023-02-01T15:20:03;7.50;;;3.72;;
37280;SDS011;23169;41.804;12.596;2023-02-01T15:22:40;14.05;;;4.28;;
37280;SDS011;23169;41.804;12.596;2023-02-01T15:25:18;8.27;;;3.58;;
37280;SDS011;23169;41.804;12.596;2023-02-01T15:27:48;7.28;;;3.55;;
37280;SDS011;23169;41.804;12.596;2023-02-01T15:30:21;6.13;;;3.22;;
37280;SDS011;23169;41.804;12.596;2023-02-01T15:32:52;10.90;;;3.97;;
37280;SDS011;23169;41.804;12.596;2023-02-01T15:43:24;11.27;;;3.67;;
37280;SDS011;23169;41.804;12.596;2023-02-01T15:45:58;9.30;;;3.83;;
37280;SDS011;23169;41.804;12.596;2023-02-01T15:48:49;11.90;;;3.83;;
37280;SDS011;23169;41.804;12.596;2023-02-01T15:51:23;9.02;;;3.45;;
37280;SDS011;23169;41.804;12.596;2023-02-01T15:56:25;12.75;;;4.97;;
37280;SDS011;23169;41.804;12.596;2023-02-01T15:58:57;21.35;;;8.05;;
37280;SDS011;23169;41.804;12.596;2023-02-01T16:01:28;27.67;;;8.95;;
37280;SDS011;23169;41.804;12.596;2023-02-01T16:04:14;18.00;;;6.95;;
37280;SDS011;23169;41.804;12.596;2023-02-01T16:06:49;11.45;;;4.32;;
37280;SDS011;23169;41.804;12.596;2023-02-01T16:09:21;13.57;;;4.43;;
37280;SDS011;23169;41.804;12.596;2023-02-01T16:11:56;10.30;;;4.18;;
37280;SDS011;23169;41.804;12.596;2023-02-01T16:14:26;12.13;;;4.05;;
37280;SDS011;23169;41.804;12.596;2023-02-01T16:16:56;19.15;;;6.55;;
37280;SDS011;23169;41.804;12.596;2023-02-01T16:19:26;18.38;;;7.30;;
37280;SDS011;23169;41.804;12.596;2023-02-01T16:21:56;20.15;;;6.88;;
37280;SDS011;23169;41.804;12.596;2023-02-01T16:24:24;18.63;;;6.28;;
37280;SDS011;23169;41.804;12.596;2023-02-01T16:26:54;17.33;;;6.10;;
37280;SDS011;23169;41.804;12.596;2023-02-01T16:29:22;16.60;;;5.75;;
37280;SDS011;23169;41.804;12.596;2023-02-01T16:31:51;21.13;;;7.50;;
37280;SDS011;23169;41.804;12.596;2023-02-01T16:34:20;19.85;;;6.85;;
37280;SDS011;23169;41.804;12.596;2023-02-01T16:36:48;20.73;;;6.60;;
37280;SDS011;23169;41.804;12.596;2023-02-01T16:39:23;24.13;;;7.50;;
37280;SDS011;23169;41.804;12.596;2023-02-01T16:41:51;21.95;;;7.20;;
37280;SDS011;23169;41.804;12.596;2023-02-01T16:44:20;22.35;;;7.30;;
37280;SDS011;23169;41.804;12.596;2023-02-01T16:46:48;16.65;;;6.45;;
37280;SDS011;23169;41.804;12.596;2023-02-01T16:49:22;16.55;;;5.30;;
37280;SDS011;23169;41.804;12.596;2023-02-01T16:51:52;13.55;;;4.80;;
37280;SDS011;23169;41.804;12.596;2023-02-01T16:54:25;14.48;;;5.05;;
37280;SDS011;23169;41.804;12.596;2023-02-01T16:56:54;11.65;;;4.38;;
37280;SDS011;23169;41.804;12.596;2023-02-01T16:59:23;14.82;;;4.80;;
37280;SDS011;23169;41.804;12.596;2023-02-01T17:01:52;12.20;;;4.72;;
37280;SDS011;23169;41.804;12.596;2023-02-01T17:04:20;16.67;;;4.72;;
37280;SDS011;23169;41.804;12.596;2023-02-01T17:06:48;16.50;;;5.13;;
37280;SDS011;23169;41.804;12.596;2023-02-01T17:09:16;12.23;;;4.63;;
37280;SDS011;23169;41.804;12.596;2023-02-01T17:11:45;15.68;;;5.35;;
37280;SDS011;23169;41.804;12.596;2023-02-01T17:14:17;18.95;;;6.68;;
37280;SDS011;23169;41.804;12.596;2023-02-01T17:16:48;18.00;;;6.60;;
37280;SDS011;23169;41.804;12.596;2023-02-01T17:19:19;18.77;;;6.20;;
37280;SDS011;23169;41.804;12.596;2023-02-01T17:21:51;13.38;;;5.20;;
37280;SDS011;23169;41.804;12.596;2023-02-01T17:24:24;14.13;;;5.05;;
37280;SDS011;23169;41.804;12.596;2023-02-01T17:26:54;25.63;;;8.02;;
37280;SDS011;23169;41.804;12.596;2023-02-01T17:29:23;22.55;;;8.85;;
37280;SDS011;23169;41.804;12.596;2023-02-01T17:31:53;29.40;;;12.35;;
37280;SDS011;23169;41.804;12.596;2023-02-01T17:34:22;26.65;;;11.52;;
37280;SDS011;23169;41.804;12.596;2023-02-01T17:36:51;23.40;;;10.25;;
37280;SDS011;23169;41.804;12.596;2023-02-01T17:39:20;25.83;;;9.80;;
37280;SDS011;23169;41.804;12.596;2023-02-01T17:42:10;26.65;;;11.20;;
37280;SDS011;23169;41.804;12.596;2023-02-01T17:44:39;31.55;;;15.38;;
37280;SDS011;23169;41.804;12.596;2023-02-01T17:47:08;41.72;;;19.40;;
37280;SDS011;23169;41.804;12.596;2023-02-01T17:49:37;39.35;;;22.20;;
37280;SDS011;23169;41.804;12.596;2023-02-01T17:52:08;42.75;;;22.33;;
37280;SDS011;23169;41.804;12.596;2023-02-01T17:54:43;41.20;;;22.35;;